createdAt,value
2023-04-09T00:00:37.456Z,99.90
2023-04-09T00:03:31.403Z,99.90
2023-04-09T00:06:18.509Z,99.90
2023-04-09T00:09:12.483Z,99.90
2023-04-09T00:12:06.267Z,99.90
2023-04-09T00:14:53.457Z,99.90
2023-04-09T00:17:47.280Z,99.90
2023-04-09T00:20:41.246Z,99.90
2023-04-09T00:23:28.382Z,99.90
2023-04-09T00:26:22.406Z,99.90
2023-04-09T00:29:16.304Z,99.90
2023-04-09T00:32:03.502Z,99.90
2023-04-09T00:34:57.355Z,99.90
2023-04-09T00:37:44.473Z,99.90
2023-04-09T00:40:38.323Z,99.90
2023-04-09T00:43:32.301Z,99.90
2023-04-09T00:46:19.535Z,99.90
2023-04-09T00:49:13.330Z,99.90
2023-04-09T00:52:07.344Z,99.90
2023-04-09T00:55:02.407Z,99.90
2023-04-09T00:57:49.548Z,99.90
2023-04-09T01:00:43.372Z,99.90
2023-04-09T01:03:37.460Z,99.90
2023-04-09T01:06:51.391Z,99.90
2023-04-09T01:10:01.372Z,99.90
2023-04-09T01:13:07.296Z,99.90
2023-04-09T01:16:04.420Z,99.90
2023-04-09T01:18:59.791Z,99.90
2023-04-09T01:21:54.373Z,99.90
2023-04-09T01:25:21.353Z,99.90
2023-04-09T01:28:39.377Z,99.90
2023-04-09T01:31:42.360Z,99.90
2023-04-09T01:34:37.356Z,99.90
2023-04-09T01:37:32.356Z,99.90
2023-04-09T01:40:19.707Z,99.90
2023-04-09T01:43:15.413Z,99.90
2023-04-09T01:46:05.646Z,99.90
2023-04-09T01:48:59.427Z,99.90
2023-04-09T01:51:48.285Z,99.90
2023-04-09T01:54:42.430Z,99.90
2023-04-09T01:57:30.688Z,99.90
2023-04-09T02:00:24.379Z,99.90
2023-04-09T02:03:21.020Z,99.90
2023-04-09T02:06:22.388Z,99.90
2023-04-09T02:09:16.441Z,99.90
2023-04-09T02:12:12.593Z,99.90
2023-04-09T02:15:08.477Z,99.90
2023-04-09T02:18:02.473Z,99.90
2023-04-09T02:20:56.499Z,99.90
2023-04-09T02:23:43.574Z,99.90
2023-04-09T02:26:37.460Z,99.90
2023-04-09T02:29:24.584Z,99.90
2023-04-09T02:32:18.516Z,99.90
2023-04-09T02:35:12.450Z,99.90
2023-04-09T02:37:59.638Z,99.90
2023-04-09T02:40:53.524Z,99.90
2023-04-09T02:44:24.824Z,99.90
2023-04-09T02:47:11.884Z,99.90
2023-04-09T02:50:05.829Z,99.90
2023-04-09T02:52:53.009Z,99.90
2023-04-09T02:55:46.811Z,99.90
2023-04-09T02:58:33.991Z,99.90
2023-04-09T03:01:27.880Z,99.90
2023-04-09T03:04:15.059Z,99.90
2023-04-09T03:07:08.964Z,99.90
2023-04-09T03:09:56.117Z,99.90
2023-04-09T03:12:50.832Z,99.90
2023-04-09T03:15:38.021Z,99.90
2023-04-09T03:18:31.906Z,99.90
2023-04-09T03:21:18.986Z,99.90
2023-04-09T03:24:12.871Z,99.90
2023-04-09T03:27:06.933Z,99.90
2023-04-09T03:29:56.536Z,99.90
2023-04-09T03:32:50.000Z,99.90
2023-04-09T03:35:43.928Z,99.90
2023-04-09T03:38:37.891Z,99.90
2023-04-09T03:41:26.704Z,99.90
2023-04-09T03:44:19.922Z,99.90
2023-04-09T03:47:07.963Z,99.90
2023-04-09T03:50:07.931Z,99.90
2023-04-09T03:52:55.158Z,99.90
2023-04-09T03:55:48.986Z,99.90
2023-04-09T03:58:42.888Z,99.90
2023-04-09T04:01:29.921Z,99.90
2023-04-09T04:04:24.234Z,99.90
2023-04-09T04:07:17.890Z,99.90
2023-04-09T04:10:08.428Z,99.90
2023-04-09T04:13:01.965Z,99.90
2023-04-09T04:15:55.947Z,99.90
2023-04-09T04:18:43.079Z,99.90
2023-04-09T04:21:37.267Z,99.90
2023-04-09T04:24:24.549Z,99.90
2023-04-09T04:27:17.948Z,99.90
2023-04-09T04:30:11.984Z,99.90
2023-04-09T04:32:59.182Z,99.90
2023-04-09T04:35:53.010Z,99.90
2023-04-09T04:38:47.124Z,99.90
2023-04-09T04:41:41.026Z,99.90
2023-04-09T04:44:28.142Z,99.90
2023-04-09T04:47:22.003Z,99.90
2023-04-09T04:50:16.022Z,99.90
2023-04-09T04:53:03.136Z,99.90
2023-04-09T04:55:57.021Z,99.90
2023-04-09T04:58:51.202Z,99.90
2023-04-09T05:01:38.586Z,99.90
2023-04-09T05:04:32.013Z,99.90
2023-04-09T05:07:19.140Z,99.90
2023-04-09T05:10:14.082Z,99.90
2023-04-09T05:13:08.123Z,99.90
2023-04-09T05:15:55.242Z,99.90
2023-04-09T05:18:49.024Z,99.90
2023-04-09T05:21:36.116Z,99.90
2023-04-09T05:24:30.113Z,99.90
2023-04-09T05:27:26.154Z,99.90
2023-04-09T05:30:13.478Z,99.90
2023-04-09T05:33:07.103Z,99.90
2023-04-09T05:35:54.290Z,99.90
2023-04-09T05:38:48.088Z,99.90
2023-04-09T05:41:37.279Z,99.90
2023-04-09T05:44:31.057Z,99.90
2023-04-09T05:47:18.132Z,99.90
2023-04-09T05:50:13.098Z,99.90
2023-04-09T05:53:00.222Z,99.90
2023-04-09T05:55:56.140Z,99.90
2023-04-09T05:58:43.312Z,99.90
2023-04-09T06:01:37.214Z,99.90
2023-04-09T06:04:24.464Z,99.90
2023-04-09T06:07:18.166Z,99.90
2023-04-09T06:10:12.142Z,99.90
2023-04-09T06:13:06.160Z,99.90
2023-04-09T06:15:53.364Z,99.90
2023-04-09T06:18:49.168Z,99.90
2023-04-09T06:21:36.569Z,99.90
2023-04-09T06:24:30.141Z,99.90
2023-04-09T06:27:25.147Z,99.90
2023-04-09T06:30:12.566Z,99.90
2023-04-09T06:33:06.228Z,99.90
2023-04-09T06:36:00.301Z,99.90
2023-04-09T06:38:47.468Z,99.90
2023-04-09T06:41:41.165Z,99.90
2023-04-09T06:44:35.186Z,99.90
2023-04-09T06:47:22.322Z,99.90
2023-04-09T06:50:16.379Z,99.90
2023-04-09T06:53:03.555Z,99.90
2023-04-09T06:55:58.189Z,99.90
2023-04-09T06:58:52.191Z,99.90
2023-04-09T07:01:47.282Z,99.90
2023-04-09T07:04:34.718Z,99.90
2023-04-09T07:07:29.172Z,99.90
2023-04-09T07:10:16.439Z,99.90
2023-04-09T07:13:10.220Z,99.90
2023-04-09T07:15:57.334Z,99.90
2023-04-09T07:18:51.207Z,99.90
2023-04-09T07:21:45.235Z,99.90
2023-04-09T07:24:39.259Z,99.90
2023-04-09T07:27:27.820Z,99.90
2023-04-09T07:30:22.293Z,99.90
2023-04-09T07:33:16.276Z,99.90
2023-04-09T07:36:10.380Z,99.90
2023-04-09T07:39:04.307Z,99.90
2023-04-09T07:41:58.282Z,99.90
2023-04-09T07:44:45.333Z,99.90
2023-04-09T07:47:39.299Z,99.90
2023-04-09T07:50:27.016Z,99.90
2023-04-09T07:53:21.331Z,99.90
2023-04-09T07:56:08.359Z,99.90
2023-04-09T07:59:02.429Z,99.90
2023-04-09T08:01:49.898Z,99.90
2023-04-09T08:04:43.476Z,99.90
2023-04-09T08:07:30.927Z,99.90
2023-04-09T08:10:24.391Z,99.90
2023-04-09T08:13:12.037Z,99.90
2023-04-09T08:16:09.609Z,99.90
2023-04-09T08:18:57.287Z,99.90
2023-04-09T08:21:51.394Z,99.90
2023-04-09T08:24:46.318Z,99.90
2023-04-09T08:27:34.718Z,99.90
2023-04-09T08:30:28.357Z,99.90
2023-04-09T08:33:15.536Z,99.90
2023-04-09T08:36:09.554Z,99.90
2023-04-09T08:38:56.729Z,99.90
2023-04-09T08:41:50.403Z,99.90
2023-04-09T08:44:44.382Z,99.90
2023-04-09T08:47:40.411Z,99.90
2023-04-09T08:50:27.562Z,99.90
2023-04-09T08:53:23.376Z,99.90
2023-04-09T08:56:10.476Z,99.90
2023-04-09T08:59:04.368Z,99.90
2023-04-09T09:02:14.473Z,99.90
2023-04-09T09:05:01.695Z,99.90
2023-04-09T09:08:01.408Z,99.90
2023-04-09T09:10:55.422Z,99.90
2023-04-09T09:13:49.423Z,99.90
2023-04-09T09:16:49.419Z,99.90
2023-04-09T09:19:43.415Z,99.90
2023-04-09T09:22:55.132Z,99.90
2023-04-09T09:25:50.411Z,99.90
2023-04-09T09:28:37.747Z,99.90
2023-04-09T09:31:32.457Z,99.90
2023-04-09T09:34:28.457Z,99.90
2023-04-09T09:37:34.301Z,99.90
2023-04-09T09:40:35.501Z,99.90
2023-04-09T09:43:47.781Z,99.90
2023-04-09T09:46:43.456Z,99.90
2023-04-09T09:49:37.499Z,99.90
2023-04-09T09:52:27.078Z,99.90
2023-04-09T09:55:22.490Z,99.90
2023-04-09T09:58:17.201Z,99.90
2023-04-09T10:01:17.486Z,99.90
2023-04-09T10:04:07.103Z,99.90
2023-04-09T10:07:02.526Z,99.90
2023-04-09T10:09:51.972Z,99.90
2023-04-09T10:12:48.573Z,99.90
2023-04-09T10:15:36.024Z,99.90
2023-04-09T10:18:30.521Z,99.90
2023-04-09T10:21:47.804Z,99.90
2023-04-09T10:24:42.519Z,99.90
2023-04-09T10:27:36.563Z,99.90
2023-04-09T10:30:36.780Z,99.90
2023-04-09T10:33:33.521Z,99.90
2023-04-09T10:36:28.662Z,99.90
2023-04-09T10:39:15.825Z,99.90
2023-04-09T10:42:18.538Z,99.90
2023-04-09T10:45:23.605Z,99.90
2023-04-09T10:48:14.258Z,99.90
2023-04-09T10:51:12.576Z,99.90
2023-04-09T10:53:59.657Z,99.90
2023-04-09T10:57:13.560Z,99.90
2023-04-09T11:00:00.784Z,99.90
2023-04-09T11:03:10.703Z,99.90
2023-04-09T11:06:08.581Z,99.90
2023-04-09T11:09:02.976Z,99.90
2023-04-09T11:12:00.612Z,99.90
2023-04-09T11:14:47.694Z,99.90
2023-04-09T11:17:43.688Z,99.90
2023-04-09T11:20:31.285Z,99.90
2023-04-09T11:23:25.585Z,99.90
2023-04-09T11:26:19.621Z,99.90
2023-04-09T11:29:16.604Z,99.90
2023-04-09T11:32:07.482Z,99.90
2023-04-09T11:35:00.626Z,99.90
2023-04-09T11:37:56.680Z,99.90
2023-04-09T11:40:51.585Z,99.90
2023-04-09T11:43:45.658Z,99.90
2023-04-09T11:46:33.443Z,99.90
2023-04-09T11:49:28.628Z,99.90
2023-04-09T11:52:18.483Z,99.90
2023-04-09T11:55:12.656Z,99.90
2023-04-09T11:58:01.337Z,99.90
2023-04-09T12:00:55.671Z,99.90
2023-04-09T12:03:42.917Z,99.90
2023-04-09T12:06:36.654Z,99.90
2023-04-09T12:09:23.713Z,99.90
2023-04-09T12:12:17.713Z,99.90
2023-04-09T12:15:20.730Z,99.90
2023-04-09T12:18:18.709Z,99.90
2023-04-09T12:21:06.291Z,99.90
2023-04-09T12:24:00.694Z,99.90
2023-04-09T12:26:54.702Z,99.90
2023-04-09T12:29:49.054Z,99.90
2023-04-09T12:32:42.754Z,99.90
2023-04-09T12:35:36.789Z,99.90
2023-04-09T12:38:30.773Z,99.90
2023-04-09T12:41:24.737Z,99.90
2023-04-09T12:44:11.799Z,99.90
2023-04-09T12:47:05.736Z,99.90
2023-04-09T12:49:53.968Z,99.90
2023-04-09T12:52:48.051Z,99.90
2023-04-09T12:55:35.124Z,99.90
2023-04-09T12:58:28.730Z,99.90
2023-04-09T13:01:15.878Z,99.60
2023-04-09T13:04:09.874Z,99.90
2023-04-09T13:06:57.028Z,99.50
2023-04-09T13:09:51.789Z,97.90
2023-04-09T13:12:38.940Z,96.70
2023-04-09T13:15:32.771Z,95.90
2023-04-09T13:18:26.787Z,95.30
2023-04-09T13:21:24.836Z,95.60
2023-04-09T13:24:11.998Z,96.00
2023-04-09T13:27:05.776Z,97.00
2023-04-09T13:29:52.847Z,95.80
2023-04-09T13:32:46.817Z,95.70
2023-04-09T13:35:40.891Z,94.90
2023-04-09T13:38:28.141Z,93.80
2023-04-09T13:41:21.915Z,93.40
2023-04-09T13:44:09.084Z,93.10
2023-04-09T13:47:02.822Z,92.90
2023-04-09T13:49:51.591Z,93.00
2023-04-09T13:52:44.876Z,92.70
2023-04-09T13:55:32.047Z,92.70
2023-04-09T13:58:26.947Z,92.60
2023-04-09T14:01:20.873Z,92.30
2023-04-09T14:04:14.991Z,92.20
2023-04-09T14:07:02.163Z,91.10
2023-04-09T14:09:57.899Z,91.30
2023-04-09T14:12:44.999Z,90.80
2023-04-09T14:15:38.926Z,90.60
2023-04-09T14:18:26.111Z,90.90
2023-04-09T14:21:19.870Z,90.60
2023-04-09T14:24:07.690Z,89.60
2023-04-09T14:27:00.951Z,89.80
2023-04-09T14:29:48.077Z,87.40
2023-04-09T14:32:41.918Z,87.00
2023-04-09T14:35:29.188Z,88.60
2023-04-09T14:38:23.948Z,87.50
2023-04-09T14:41:17.923Z,88.40
2023-04-09T14:44:05.169Z,86.00
2023-04-09T14:47:01.031Z,87.10
2023-04-09T14:49:48.186Z,86.90
2023-04-09T14:52:41.939Z,88.10
2023-04-09T14:55:35.965Z,89.10
2023-04-09T14:58:36.001Z,90.30
2023-04-09T15:01:31.823Z,90.90
2023-04-09T15:04:27.238Z,90.50
2023-04-09T15:07:14.355Z,89.60
2023-04-09T15:10:07.933Z,89.50
2023-04-09T15:12:55.293Z,89.50
2023-04-09T15:15:50.988Z,89.30
2023-04-09T15:18:38.045Z,89.60
2023-04-09T15:21:32.981Z,88.30
2023-04-09T15:24:26.995Z,88.00
2023-04-09T15:27:14.085Z,88.20
2023-04-09T15:30:07.968Z,88.70
2023-04-09T15:33:08.110Z,89.90
2023-04-09T15:35:55.865Z,90.00
2023-04-09T15:38:49.107Z,89.90
2023-04-09T15:41:43.074Z,89.20
2023-04-09T15:44:30.270Z,88.80
2023-04-09T15:47:24.092Z,88.60
2023-04-09T15:50:18.074Z,89.00
2023-04-09T15:53:12.063Z,88.30
2023-04-09T15:55:59.362Z,88.00
2023-04-09T15:58:53.278Z,88.60
2023-04-09T16:01:40.683Z,88.70
2023-04-09T16:04:34.114Z,89.60
2023-04-09T16:07:28.091Z,90.20
2023-04-09T16:10:15.689Z,90.30
2023-04-09T16:13:10.132Z,90.10
2023-04-09T16:16:04.095Z,90.60
2023-04-09T16:18:58.079Z,90.60
2023-04-09T16:21:45.689Z,90.60
2023-04-09T16:24:39.118Z,90.70
2023-04-09T16:27:26.235Z,90.90
2023-04-09T16:30:20.127Z,90.80
2023-04-09T16:33:10.364Z,91.10
2023-04-09T16:36:04.159Z,91.50
2023-04-09T16:38:58.125Z,91.70
2023-04-09T16:41:45.331Z,91.90
2023-04-09T16:44:39.175Z,92.10
2023-04-09T16:47:26.209Z,92.20
2023-04-09T16:50:20.151Z,92.40
2023-04-09T16:53:07.927Z,92.40
2023-04-09T16:56:01.181Z,92.60
2023-04-09T16:58:48.428Z,92.80
2023-04-09T17:01:42.239Z,93.00
2023-04-09T17:04:29.748Z,92.90
2023-04-09T17:07:23.186Z,93.30
2023-04-09T17:10:10.641Z,93.50
2023-04-09T17:13:04.136Z,93.80
2023-04-09T17:15:59.179Z,94.20
2023-04-09T17:18:53.389Z,94.40
2023-04-09T17:21:41.068Z,94.60
2023-04-09T17:24:34.191Z,94.80
2023-04-09T17:27:21.786Z,94.90
2023-04-09T17:30:16.222Z,95.00
2023-04-09T17:33:10.205Z,95.20
2023-04-09T17:35:57.689Z,95.40
2023-04-09T17:38:52.529Z,95.60
2023-04-09T17:41:46.188Z,95.80
2023-04-09T17:44:42.452Z,96.20
2023-04-09T17:47:29.624Z,96.60
2023-04-09T17:50:23.258Z,96.80
2023-04-09T17:53:10.384Z,97.00
2023-04-09T17:56:04.318Z,97.20
2023-04-09T17:58:58.299Z,97.50
2023-04-09T18:01:45.510Z,97.90
2023-04-09T18:04:41.412Z,98.40
2023-04-09T18:07:39.284Z,98.80
2023-04-09T18:10:27.054Z,99.40
2023-04-09T18:13:20.265Z,99.90
2023-04-09T18:16:18.545Z,99.90
2023-04-09T18:19:06.716Z,99.90
2023-04-09T18:22:00.557Z,99.90
2023-04-09T18:24:47.687Z,99.90
2023-04-09T18:27:41.648Z,99.90
2023-04-09T18:30:28.745Z,99.90
2023-04-09T18:33:22.270Z,99.90
2023-04-09T18:36:09.465Z,99.90
2023-04-09T18:39:04.476Z,99.90
2023-04-09T18:41:51.599Z,99.90
2023-04-09T18:44:45.396Z,99.90
2023-04-09T18:47:39.317Z,99.90
2023-04-09T18:50:33.330Z,99.90
2023-04-09T18:53:20.408Z,99.90
2023-04-09T18:56:14.357Z,99.90
2023-04-09T18:59:01.468Z,99.90
2023-04-09T19:01:55.518Z,99.90
2023-04-09T19:04:42.894Z,99.90
2023-04-09T19:07:36.369Z,99.90
2023-04-09T19:10:23.419Z,99.90
2023-04-09T19:13:17.373Z,99.90
2023-04-09T19:16:06.064Z,99.90
2023-04-09T19:19:00.415Z,99.90
2023-04-09T19:21:54.381Z,99.90
2023-04-09T19:24:44.424Z,99.90
2023-04-09T19:27:38.516Z,99.90
2023-04-09T19:30:25.756Z,99.90
2023-04-09T19:33:19.440Z,99.90
2023-04-09T19:36:08.183Z,99.90
2023-04-09T19:39:01.560Z,99.90
2023-04-09T19:41:48.734Z,99.90
2023-04-09T19:44:42.546Z,99.90
2023-04-09T19:47:29.701Z,99.90
2023-04-09T19:50:23.710Z,99.90
2023-04-09T19:53:10.909Z,99.90
2023-04-09T19:56:04.689Z,99.90
2023-04-09T19:58:52.076Z,99.90
2023-04-09T20:01:46.607Z,99.90
2023-04-09T20:04:40.724Z,99.90
2023-04-09T20:07:27.989Z,99.90
2023-04-09T20:10:22.390Z,99.90
2023-04-09T20:13:09.585Z,99.90
2023-04-09T20:16:03.523Z,99.90
2023-04-09T20:18:50.652Z,99.90
2023-04-09T20:21:44.503Z,99.90
2023-04-09T20:24:32.210Z,99.90
2023-04-09T20:27:25.495Z,99.90
2023-04-09T20:30:12.751Z,99.90
2023-04-09T20:33:06.739Z,99.90
2023-04-09T20:36:00.858Z,99.90
2023-04-09T20:38:55.066Z,99.90
2023-04-09T20:41:42.505Z,99.90
2023-04-09T20:44:36.539Z,99.90
2023-04-09T20:47:23.790Z,99.90
2023-04-09T20:50:17.475Z,99.90
2023-04-09T20:53:04.551Z,99.90
2023-04-09T20:55:59.563Z,99.90
2023-04-09T20:58:46.689Z,99.90
2023-04-09T21:01:40.679Z,99.90
2023-04-09T21:04:28.306Z,99.90
2023-04-09T21:07:22.622Z,99.90
2023-04-09T21:10:09.877Z,99.90
2023-04-09T21:13:03.780Z,99.90
2023-04-09T21:15:51.281Z,99.90
2023-04-09T21:18:44.817Z,99.90
2023-04-09T21:21:31.886Z,99.90
2023-04-09T21:24:25.588Z,99.90
2023-04-09T21:27:13.591Z,99.90
2023-04-09T21:30:14.785Z,99.90
2023-04-09T21:33:03.674Z,99.90
2023-04-09T21:36:00.639Z,99.90
2023-04-09T21:38:54.813Z,99.90
2023-04-09T21:41:42.204Z,99.90
2023-04-09T21:44:35.751Z,99.90
2023-04-09T21:47:23.696Z,99.90
2023-04-09T21:50:17.633Z,99.90
2023-04-09T21:53:04.804Z,99.90
2023-04-09T21:55:58.655Z,99.90
2023-04-09T21:58:45.808Z,99.90
2023-04-09T22:01:40.988Z,99.90
2023-04-09T22:04:28.640Z,99.90
2023-04-09T22:07:22.906Z,99.90
2023-04-09T22:10:10.394Z,99.90
2023-04-09T22:13:04.707Z,99.90
2023-04-09T22:15:52.729Z,99.90
2023-04-09T22:18:46.653Z,99.90
2023-04-09T22:21:33.792Z,99.90
2023-04-09T22:24:33.661Z,99.90
2023-04-09T22:27:20.778Z,99.90
2023-04-09T22:30:14.667Z,99.90
2023-04-09T22:33:08.777Z,99.90
2023-04-09T22:35:56.197Z,99.90
2023-04-09T22:38:49.947Z,99.90
2023-04-09T22:41:37.128Z,99.90
2023-04-09T22:44:31.725Z,99.90
2023-04-09T22:47:25.961Z,99.90
2023-04-09T22:50:13.963Z,99.90
2023-04-09T22:53:07.726Z,99.90
2023-04-09T22:55:57.798Z,99.90
2023-04-09T22:58:52.062Z,99.90
2023-04-09T23:01:40.246Z,99.90
2023-04-09T23:04:33.769Z,99.90
2023-04-09T23:07:21.169Z,99.90
2023-04-09T23:10:14.707Z,99.90
2023-04-09T23:13:08.698Z,99.90
2023-04-09T23:15:56.062Z,99.90
2023-04-09T23:18:50.729Z,99.90
2023-04-09T23:21:37.813Z,99.90
2023-04-09T23:24:31.770Z,99.90
2023-04-09T23:27:19.184Z,99.90
2023-04-09T23:30:13.742Z,99.90
2023-04-09T23:33:01.009Z,99.90
2023-04-09T23:35:54.871Z,99.90
2023-04-09T23:38:43.771Z,99.90
2023-04-09T23:41:38.034Z,99.90
2023-04-09T23:44:25.296Z,99.90
2023-04-09T23:47:19.826Z,99.90
2023-04-09T23:50:08.406Z,99.90
2023-04-09T23:53:05.766Z,99.90
2023-04-09T23:55:59.867Z,99.90
2023-04-09T23:58:53.829Z,99.90
